Terminal Aerodrome Forecast
Issued by NWS

Home | Current Version | Previous Version | Text Only | Print | Product List | Glossary On
Versions: 1 2 3 4 5 6 7 8 9 10 11 12 13 14 15 16 17 18 19 20 21
000
FTAK31 PANC 240536
TAFAGK
TAF
PAGK 240536Z 2406/2506 VRB04KT P6SM SKC
     FM241300 VRB03KT 3SM -SN BKN025
     FM241500 VRB03KT 1 1/2SM -SN BR OVC015
     FM242000 32003KT 3SM -SN BR SCT015 OVC025
     FM250000 VRB03KT P6SM VCSH BKN025=

USA.gov is the U.S. government's official web portal to all federal, state and local government web resources and services.